sensor_id;sensor_type;location;lat;lon;timestamp;pressure;altitude;pressure_sealevel;temperature;humidity
72465;BME280;60471;52.150;4.508;2023-09-18T00:00:49;100311.81;;;20.95;82.25
72465;BME280;60471;52.150;4.508;2023-09-18T00:03:20;100306.53;;;20.86;82.96
72465;BME280;60471;52.150;4.508;2023-09-18T00:05:51;100286.91;;;20.85;83.13
72465;BME280;60471;52.150;4.508;2023-09-18T00:08:18;100290.19;;;20.79;83.20
72465;BME280;60471;52.150;4.508;2023-09-18T00:10:49;100279.53;;;20.87;83.08
72465;BME280;60471;52.150;4.508;2023-09-18T00:13:18;100277.69;;;20.88;83.02
72465;BME280;60471;52.150;4.508;2023-09-18T00:15:45;100277.84;;;20.86;83.00
72465;BME280;60471;52.150;4.508;2023-09-18T00:18:16;100266.13;;;20.87;83.19
72465;BME280;60471;52.150;4.508;2023-09-18T00:20:43;100264.72;;;20.83;83.17
72465;BME280;60471;52.150;4.508;2023-09-18T00:23:09;100273.94;;;20.80;83.25
72465;BME280;60471;52.150;4.508;2023-09-18T00:25:36;100273.94;;;20.98;82.55
72465;BME280;60471;52.150;4.508;2023-09-18T00:28:08;100266.81;;;21.07;82.10
72465;BME280;60471;52.150;4.508;2023-09-18T00:30:34;100261.81;;;21.30;81.24
72465;BME280;60471;52.150;4.508;2023-09-18T00:33:00;100263.81;;;21.28;80.79
72465;BME280;60471;52.150;4.508;2023-09-18T00:35:27;100249.53;;;21.27;80.87
72465;BME280;60471;52.150;4.508;2023-09-18T00:37:53;100251.84;;;21.22;81.09
72465;BME280;60471;52.150;4.508;2023-09-18T00:40:19;100233.88;;;21.23;81.17
72465;BME280;60471;52.150;4.508;2023-09-18T00:42:46;100234.66;;;21.33;80.99
72465;BME280;60471;52.150;4.508;2023-09-18T00:45:12;100224.78;;;21.33;80.52
72465;BME280;60471;52.150;4.508;2023-09-18T00:47:38;100215.66;;;21.26;80.71
72465;BME280;60471;52.150;4.508;2023-09-18T00:50:07;100203.06;;;21.27;80.91
72465;BME280;60471;52.150;4.508;2023-09-18T00:52:38;100196.31;;;21.23;81.30
72465;BME280;60471;52.150;4.508;2023-09-18T00:55:05;100187.59;;;21.21;81.19
72465;BME280;60471;52.150;4.508;2023-09-18T00:57:34;100180.00;;;21.16;81.30
72465;BME280;60471;52.150;4.508;2023-09-18T01:00:02;100168.69;;;21.04;82.36
72465;BME280;60471;52.150;4.508;2023-09-18T01:02:31;100168.56;;;21.06;81.76
72465;BME280;60471;52.150;4.508;2023-09-18T01:04:58;100152.91;;;21.01;81.90
72465;BME280;60471;52.150;4.508;2023-09-18T01:07:24;100145.72;;;21.02;82.27
72465;BME280;60471;52.150;4.508;2023-09-18T01:09:50;100136.56;;;21.12;81.92
72465;BME280;60471;52.150;4.508;2023-09-18T01:15:05;100139.81;;;21.24;81.24
72465;BME280;60471;52.150;4.508;2023-09-18T01:17:37;100145.94;;;21.08;81.90
72465;BME280;60471;52.150;4.508;2023-09-18T01:20:04;100141.31;;;21.19;81.79
72465;BME280;60471;52.150;4.508;2023-09-18T01:22:34;100132.47;;;21.00;82.26
72465;BME280;60471;52.150;4.508;2023-09-18T01:25:00;100134.53;;;21.06;82.37
72465;BME280;60471;52.150;4.508;2023-09-18T01:27:26;100129.88;;;21.17;81.91
72465;BME280;60471;52.150;4.508;2023-09-18T01:29:53;100135.72;;;21.12;81.98
72465;BME280;60471;52.150;4.508;2023-09-18T01:32:19;100144.94;;;21.09;82.53
72465;BME280;60471;52.150;4.508;2023-09-18T01:34:54;100146.03;;;20.99;82.64
72465;BME280;60471;52.150;4.508;2023-09-18T01:37:27;100165.72;;;21.07;82.59
72465;BME280;60471;52.150;4.508;2023-09-18T01:39:56;100163.81;;;21.00;83.17
72465;BME280;60471;52.150;4.508;2023-09-18T01:42:28;100153.81;;;20.84;84.00
72465;BME280;60471;52.150;4.508;2023-09-18T01:44:55;100141.97;;;20.95;83.02
72465;BME280;60471;52.150;4.508;2023-09-18T01:47:22;100143.13;;;20.92;83.04
72465;BME280;60471;52.150;4.508;2023-09-18T01:49:52;100143.97;;;20.93;83.53
72465;BME280;60471;52.150;4.508;2023-09-18T01:52:19;100142.34;;;20.74;84.18
72465;BME280;60471;52.150;4.508;2023-09-18T01:54:45;100141.19;;;20.76;84.34
72465;BME280;60471;52.150;4.508;2023-09-18T01:57:11;100136.50;;;20.78;84.39
72465;BME280;60471;52.150;4.508;2023-09-18T01:59:38;100140.00;;;20.79;84.15
72465;BME280;60471;52.150;4.508;2023-09-18T02:02:05;100143.69;;;20.78;84.37
72465;BME280;60471;52.150;4.508;2023-09-18T02:04:34;100139.84;;;20.80;83.96
72465;BME280;60471;52.150;4.508;2023-09-18T02:07:00;100145.66;;;20.94;83.57
72465;BME280;60471;52.150;4.508;2023-09-18T02:09:27;100145.06;;;20.82;83.75
72465;BME280;60471;52.150;4.508;2023-09-18T02:11:53;100149.16;;;20.68;84.85
72465;BME280;60471;52.150;4.508;2023-09-18T02:14:19;100155.13;;;20.62;85.27
72465;BME280;60471;52.150;4.508;2023-09-18T02:16:45;100149.22;;;20.59;85.42
72465;BME280;60471;52.150;4.508;2023-09-18T02:19:13;100150.22;;;20.58;85.65
72465;BME280;60471;52.150;4.508;2023-09-18T02:21:40;100144.63;;;20.69;85.25
72465;BME280;60471;52.150;4.508;2023-09-18T02:24:07;100149.75;;;20.62;85.41
72465;BME280;60471;52.150;4.508;2023-09-18T02:26:33;100139.16;;;20.52;85.86
72465;BME280;60471;52.150;4.508;2023-09-18T02:29:00;100139.03;;;20.62;85.83
72465;BME280;60471;52.150;4.508;2023-09-18T02:31:28;100135.22;;;20.65;85.49
72465;BME280;60471;52.150;4.508;2023-09-18T02:33:55;100135.66;;;20.60;85.81
72465;BME280;60471;52.150;4.508;2023-09-18T02:36:22;100130.47;;;20.59;86.10
72465;BME280;60471;52.150;4.508;2023-09-18T02:38:48;100123.19;;;20.51;86.74
72465;BME280;60471;52.150;4.508;2023-09-18T02:41:14;100115.69;;;20.54;86.26
72465;BME280;60471;52.150;4.508;2023-09-18T02:43:40;100098.97;;;20.61;86.29
72465;BME280;60471;52.150;4.508;2023-09-18T02:46:08;100066.63;;;20.80;85.26
72465;BME280;60471;52.150;4.508;2023-09-18T02:48:34;100072.97;;;20.79;85.11
72465;BME280;60471;52.150;4.508;2023-09-18T02:51:01;100072.41;;;20.67;85.71
72465;BME280;60471;52.150;4.508;2023-09-18T02:53:28;100061.19;;;20.72;85.86
72465;BME280;60471;52.150;4.508;2023-09-18T02:55:57;100058.56;;;20.80;85.50
72465;BME280;60471;52.150;4.508;2023-09-18T02:58:25;100046.78;;;20.73;86.02
72465;BME280;60471;52.150;4.508;2023-09-18T03:00:55;100032.91;;;20.77;85.37
72465;BME280;60471;52.150;4.508;2023-09-18T03:03:26;100034.59;;;20.78;85.19
72465;BME280;60471;52.150;4.508;2023-09-18T03:05:52;100025.59;;;20.88;85.31
72465;BME280;60471;52.150;4.508;2023-09-18T03:08:18;100008.72;;;20.95;84.88
72465;BME280;60471;52.150;4.508;2023-09-18T03:10:45;99999.69;;;20.96;84.83
72465;BME280;60471;52.150;4.508;2023-09-18T03:13:14;100004.53;;;21.01;84.48
72465;BME280;60471;52.150;4.508;2023-09-18T03:15:44;99995.19;;;21.13;83.55
72465;BME280;60471;52.150;4.508;2023-09-18T03:18:13;100000.41;;;21.14;83.65
72465;BME280;60471;52.150;4.508;2023-09-18T03:20:40;99994.88;;;21.16;83.48
72465;BME280;60471;52.150;4.508;2023-09-18T03:23:06;99998.34;;;21.00;84.04
72465;BME280;60471;52.150;4.508;2023-09-18T03:25:32;99994.94;;;20.90;84.83
72465;BME280;60471;52.150;4.508;2023-09-18T03:27:58;100001.59;;;20.78;85.96
72465;BME280;60471;52.150;4.508;2023-09-18T03:30:25;100011.09;;;20.72;85.64
72465;BME280;60471;52.150;4.508;2023-09-18T03:32:52;99998.84;;;20.70;86.13
72465;BME280;60471;52.150;4.508;2023-09-18T03:35:20;99995.22;;;20.79;85.91
72465;BME280;60471;52.150;4.508;2023-09-18T03:37:48;100008.28;;;20.74;86.07
72465;BME280;60471;52.150;4.508;2023-09-18T03:40:17;100019.47;;;20.69;86.25
72465;BME280;60471;52.150;4.508;2023-09-18T03:42:47;100021.41;;;20.59;86.33
72465;BME280;60471;52.150;4.508;2023-09-18T03:45:14;100045.38;;;20.61;87.02
72465;BME280;60471;52.150;4.508;2023-09-18T03:47:43;100070.75;;;20.48;87.78
72465;BME280;60471;52.150;4.508;2023-09-18T03:50:09;100071.53;;;20.23;89.26
72465;BME280;60471;52.150;4.508;2023-09-18T03:52:38;100050.63;;;20.26;89.67
72465;BME280;60471;52.150;4.508;2023-09-18T03:55:05;100051.41;;;20.01;91.46
72465;BME280;60471;52.150;4.508;2023-09-18T03:57:32;100042.84;;;19.97;92.40
72465;BME280;60471;52.150;4.508;2023-09-18T03:59:58;100029.22;;;20.09;92.57
72465;BME280;60471;52.150;4.508;2023-09-18T04:02:25;100011.16;;;20.11;92.74
72465;BME280;60471;52.150;4.508;2023-09-18T04:04:53;100017.19;;;20.13;93.53
72465;BME280;60471;52.150;4.508;2023-09-18T04:07:20;99988.25;;;20.16;93.42
72465;BME280;60471;52.150;4.508;2023-09-18T04:09:47;99988.53;;;20.31;93.44
72465;BME280;60471;52.150;4.508;2023-09-18T04:12:13;99974.59;;;20.27;93.84
72465;BME280;60471;52.150;4.508;2023-09-18T04:14:40;99996.59;;;20.31;93.61
72465;BME280;60471;52.150;4.508;2023-09-18T04:17:06;99998.03;;;20.25;94.26
72465;BME280;60471;52.150;4.508;2023-09-18T04:19:32;99994.09;;;20.38;93.95
72465;BME280;60471;52.150;4.508;2023-09-18T04:21:58;99995.03;;;20.46;93.38
72465;BME280;60471;52.150;4.508;2023-09-18T04:24:25;99989.50;;;20.48;93.70
72465;BME280;60471;52.150;4.508;2023-09-18T04:26:52;99976.66;;;20.51;94.03
72465;BME280;60471;52.150;4.508;2023-09-18T04:29:19;99979.34;;;20.51;93.69
72465;BME280;60471;52.150;4.508;2023-09-18T04:31:45;99964.44;;;20.57;93.63
72465;BME280;60471;52.150;4.508;2023-09-18T04:34:12;99975.75;;;20.43;94.49
72465;BME280;60471;52.150;4.508;2023-09-18T04:36:39;99944.50;;;20.34;95.09
72465;BME280;60471;52.150;4.508;2023-09-18T04:39:06;99941.94;;;20.50;94.28
72465;BME280;60471;52.150;4.508;2023-09-18T04:41:32;99946.00;;;20.54;94.06
72465;BME280;60471;52.150;4.508;2023-09-18T04:43:59;99945.34;;;20.60;93.19
72465;BME280;60471;52.150;4.508;2023-09-18T04:46:25;99943.88;;;20.66;92.46
72465;BME280;60471;52.150;4.508;2023-09-18T04:48:52;99946.19;;;20.61;91.93
72465;BME280;60471;52.150;4.508;2023-09-18T04:51:18;99956.75;;;20.62;91.58
72465;BME280;60471;52.150;4.508;2023-09-18T04:53:44;99943.66;;;20.59;91.42
72465;BME280;60471;52.150;4.508;2023-09-18T04:56:11;99950.09;;;20.66;91.54
72465;BME280;60471;52.150;4.508;2023-09-18T04:58:37;99944.78;;;20.74;91.21
72465;BME280;60471;52.150;4.508;2023-09-18T05:01:05;99948.97;;;20.51;91.66
72465;BME280;60471;52.150;4.508;2023-09-18T05:03:34;99958.06;;;20.58;91.51
72465;BME280;60471;52.150;4.508;2023-09-18T05:06:01;99951.66;;;20.51;91.76
72465;BME280;60471;52.150;4.508;2023-09-18T05:08:28;99954.06;;;20.62;91.27
72465;BME280;60471;52.150;4.508;2023-09-18T05:10:55;99939.34;;;20.66;91.47
72465;BME280;60471;52.150;4.508;2023-09-18T05:13:21;99954.72;;;20.56;91.67
72465;BME280;60471;52.150;4.508;2023-09-18T05:15:47;99947.00;;;20.53;92.12
72465;BME280;60471;52.150;4.508;2023-09-18T05:18:13;99948.97;;;20.43;93.17
72465;BME280;60471;52.150;4.508;2023-09-18T05:20:40;99927.53;;;20.51;93.08
72465;BME280;60471;52.150;4.508;2023-09-18T05:23:06;99914.34;;;20.58;92.23
72465;BME280;60471;52.150;4.508;2023-09-18T05:25:33;99923.00;;;20.43;93.35
72465;BME280;60471;52.150;4.508;2023-09-18T05:28:04;99924.41;;;20.55;93.13
72465;BME280;60471;52.150;4.508;2023-09-18T05:30:33;99925.91;;;20.58;93.19
72465;BME280;60471;52.150;4.508;2023-09-18T05:33:02;99915.56;;;20.63;93.04
72465;BME280;60471;52.150;4.508;2023-09-18T05:35:40;99912.38;;;20.68;92.59
72465;BME280;60471;52.150;4.508;2023-09-18T05:38:10;99926.06;;;20.57;93.32
72465;BME280;60471;52.150;4.508;2023-09-18T05:40:40;99921.88;;;20.54;93.14
72465;BME280;60471;52.150;4.508;2023-09-18T05:43:06;99905.50;;;20.65;92.76
72465;BME280;60471;52.150;4.508;2023-09-18T05:45:33;99895.63;;;20.66;92.72
72465;BME280;60471;52.150;4.508;2023-09-18T05:47:59;99895.81;;;20.72;92.04
72465;BME280;60471;52.150;4.508;2023-09-18T05:50:32;99888.94;;;20.70;92.17
72465;BME280;60471;52.150;4.508;2023-09-18T05:53:01;99893.13;;;20.72;91.76
72465;BME280;60471;52.150;4.508;2023-09-18T05:55:31;99899.31;;;20.73;90.90
72465;BME280;60471;52.150;4.508;2023-09-18T05:57:58;99900.31;;;20.64;90.93
72465;BME280;60471;52.150;4.508;2023-09-18T06:00:25;99913.19;;;20.60;90.84
72465;BME280;60471;52.150;4.508;2023-09-18T06:02:51;99925.56;;;20.53;91.43
72465;BME280;60471;52.150;4.508;2023-09-18T06:05:18;99907.94;;;20.50;90.94
72465;BME280;60471;52.150;4.508;2023-09-18T06:07:48;99917.47;;;20.45;91.24
72465;BME280;60471;52.150;4.508;2023-09-18T06:10:15;99931.72;;;20.45;91.02
72465;BME280;60471;52.150;4.508;2023-09-18T06:12:44;99928.41;;;20.51;90.81
72465;BME280;60471;52.150;4.508;2023-09-18T06:15:11;99944.44;;;20.43;91.27
72465;BME280;60471;52.150;4.508;2023-09-18T06:17:42;99940.91;;;20.43;91.61
72465;BME280;60471;52.150;4.508;2023-09-18T06:20:11;99934.56;;;20.44;91.60
72465;BME280;60471;52.150;4.508;2023-09-18T06:22:41;99936.13;;;20.54;91.47
72465;BME280;60471;52.150;4.508;2023-09-18T06:25:08;99931.47;;;20.65;90.50
72465;BME280;60471;52.150;4.508;2023-09-18T06:27:39;99932.31;;;20.65;90.40
72465;BME280;60471;52.150;4.508;2023-09-18T06:30:05;99926.06;;;20.57;91.38
72465;BME280;60471;52.150;4.508;2023-09-18T06:32:33;99927.25;;;20.54;91.62
72465;BME280;60471;52.150;4.508;2023-09-18T06:35:00;99926.41;;;20.53;92.50
72465;BME280;60471;52.150;4.508;2023-09-18T06:37:26;99916.53;;;20.54;92.35
72465;BME280;60471;52.150;4.508;2023-09-18T06:39:53;99912.50;;;20.58;92.11
72465;BME280;60471;52.150;4.508;2023-09-18T06:42:19;99916.06;;;20.67;92.17
72465;BME280;60471;52.150;4.508;2023-09-18T06:44:45;99909.22;;;20.72;91.96
72465;BME280;60471;52.150;4.508;2023-09-18T06:47:11;99913.69;;;20.55;92.64
72465;BME280;60471;52.150;4.508;2023-09-18T06:49:38;99925.06;;;20.58;92.58
72465;BME280;60471;52.150;4.508;2023-09-18T06:52:04;99915.84;;;20.52;93.24
72465;BME280;60471;52.150;4.508;2023-09-18T06:54:32;99914.03;;;20.61;92.45
72465;BME280;60471;52.150;4.508;2023-09-18T06:56:58;99904.13;;;20.53;92.39
72465;BME280;60471;52.150;4.508;2023-09-18T06:59:24;99907.47;;;20.55;91.85
72465;BME280;60471;52.150;4.508;2023-09-18T07:01:50;99912.66;;;20.57;91.42
72465;BME280;60471;52.150;4.508;2023-09-18T07:04:17;99927.47;;;20.69;90.75
72465;BME280;60471;52.150;4.508;2023-09-18T07:06:43;99923.94;;;20.68;90.05
72465;BME280;60471;52.150;4.508;2023-09-18T07:09:09;99938.69;;;20.64;89.93
72465;BME280;60471;52.150;4.508;2023-09-18T07:11:37;99938.19;;;20.69;89.62
72465;BME280;60471;52.150;4.508;2023-09-18T07:14:05;99919.38;;;20.52;90.17
72465;BME280;60471;52.150;4.508;2023-09-18T07:16:32;99927.34;;;20.44;90.84
72465;BME280;60471;52.150;4.508;2023-09-18T07:19:00;99934.72;;;20.42;90.76
72465;BME280;60471;52.150;4.508;2023-09-18T07:21:27;99923.06;;;20.51;89.71
72465;BME280;60471;52.150;4.508;2023-09-18T07:23:55;99919.09;;;20.64;88.49
72465;BME280;60471;52.150;4.508;2023-09-18T07:26:21;99935.56;;;20.51;88.78
72465;BME280;60471;52.150;4.508;2023-09-18T07:28:47;99919.50;;;20.51;87.93
72465;BME280;60471;52.150;4.508;2023-09-18T07:31:14;99931.78;;;20.36;87.65
72465;BME280;60471;52.150;4.508;2023-09-18T07:33:40;99936.59;;;20.50;87.42
72465;BME280;60471;52.150;4.508;2023-09-18T07:36:07;99964.72;;;20.46;87.75
72465;BME280;60471;52.150;4.508;2023-09-18T07:38:36;99941.94;;;20.50;86.72
72465;BME280;60471;52.150;4.508;2023-09-18T07:41:03;99946.19;;;20.35;87.52
72465;BME280;60471;52.150;4.508;2023-09-18T07:43:29;99959.91;;;20.58;86.60
72465;BME280;60471;52.150;4.508;2023-09-18T07:45:56;99981.31;;;20.49;86.70
72465;BME280;60471;52.150;4.508;2023-09-18T07:48:22;99955.00;;;20.27;87.58
72465;BME280;60471;52.150;4.508;2023-09-18T07:50:49;99958.97;;;20.41;87.93
72465;BME280;60471;52.150;4.508;2023-09-18T07:53:15;99977.63;;;20.50;86.76
72465;BME280;60471;52.150;4.508;2023-09-18T07:55:42;99968.47;;;20.61;86.25
72465;BME280;60471;52.150;4.508;2023-09-18T07:58:09;99959.84;;;20.75;86.32
72465;BME280;60471;52.150;4.508;2023-09-18T08:00:35;100011.81;;;20.82;84.90
72465;BME280;60471;52.150;4.508;2023-09-18T08:03:01;99986.28;;;20.70;84.62
72465;BME280;60471;52.150;4.508;2023-09-18T08:05:28;99983.16;;;20.75;84.54
72465;BME280;60471;52.150;4.508;2023-09-18T08:07:55;99993.22;;;20.81;83.74
72465;BME280;60471;52.150;4.508;2023-09-18T08:10:23;99987.81;;;21.07;83.57
72465;BME280;60471;52.150;4.508;2023-09-18T08:12:49;99984.88;;;20.92;82.55
72465;BME280;60471;52.150;4.508;2023-09-18T08:15:21;99980.44;;;21.09;82.64
72465;BME280;60471;52.150;4.508;2023-09-18T08:17:47;99992.38;;;21.23;81.74
72465;BME280;60471;52.150;4.508;2023-09-18T08:20:15;99985.09;;;21.41;80.66
72465;BME280;60471;52.150;4.508;2023-09-18T08:22:43;99989.09;;;21.29;80.11
72465;BME280;60471;52.150;4.508;2023-09-18T08:25:10;100001.19;;;21.33;79.62
72465;BME280;60471;52.150;4.508;2023-09-18T08:27:38;99993.13;;;21.33;79.31
72465;BME280;60471;52.150;4.508;2023-09-18T08:30:13;99991.31;;;21.41;78.34
72465;BME280;60471;52.150;4.508;2023-09-18T08:32:42;100002.59;;;21.61;77.65
72465;BME280;60471;52.150;4.508;2023-09-18T08:35:09;100022.03;;;21.55;77.61
72465;BME280;60471;52.150;4.508;2023-09-18T08:37:35;100004.22;;;21.46;76.23
72465;BME280;60471;52.150;4.508;2023-09-18T08:40:01;100028.84;;;21.33;76.57
72465;BME280;60471;52.150;4.508;2023-09-18T08:42:38;100028.09;;;21.49;75.69
72465;BME280;60471;52.150;4.508;2023-09-18T08:45:08;100009.16;;;21.25;77.12
72465;BME280;60471;52.150;4.508;2023-09-18T08:47:38;100020.97;;;20.98;77.60
72465;BME280;60471;52.150;4.508;2023-09-18T08:50:11;100041.59;;;21.05;77.75
72465;BME280;60471;52.150;4.508;2023-09-18T08:52:38;100006.34;;;20.92;77.27
72465;BME280;60471;52.150;4.508;2023-09-18T08:55:06;100024.75;;;21.21;77.12
72465;BME280;60471;52.150;4.508;2023-09-18T08:57:33;100019.13;;;21.32;76.08
72465;BME280;60471;52.150;4.508;2023-09-18T09:00:02;100024.19;;;21.44;75.27
72465;BME280;60471;52.150;4.508;2023-09-18T09:02:33;100022.28;;;21.94;73.30
72465;BME280;60471;52.150;4.508;2023-09-18T09:05:00;100019.44;;;22.04;73.29
72465;BME280;60471;52.150;4.508;2023-09-18T09:07:26;100029.47;;;21.78;73.09
72465;BME280;60471;52.150;4.508;2023-09-18T09:09:57;100034.56;;;22.13;71.97
72465;BME280;60471;52.150;4.508;2023-09-18T09:15:23;100038.22;;;21.88;73.38
72465;BME280;60471;52.150;4.508;2023-09-18T09:18:02;100034.50;;;21.81;72.90
72465;BME280;60471;52.150;4.508;2023-09-18T09:20:31;100042.41;;;21.90;73.31
72465;BME280;60471;52.150;4.508;2023-09-18T09:23:02;100037.59;;;22.10;72.41
72465;BME280;60471;52.150;4.508;2023-09-18T09:25:31;100047.47;;;22.02;72.40
72465;BME280;60471;52.150;4.508;2023-09-18T09:28:04;100027.84;;;22.42;70.59
72465;BME280;60471;52.150;4.508;2023-09-18T09:30:32;100023.97;;;22.04;71.64
72465;BME280;60471;52.150;4.508;2023-09-18T09:33:03;100045.59;;;21.86;72.39
72465;BME280;60471;52.150;4.508;2023-09-18T09:35:32;100053.84;;;22.00;70.63
72465;BME280;60471;52.150;4.508;2023-09-18T09:38:08;100049.53;;;22.08;71.20
72465;BME280;60471;52.150;4.508;2023-09-18T09:40:40;100034.91;;;22.35;69.70
72465;BME280;60471;52.150;4.508;2023-09-18T09:43:09;100041.13;;;22.51;68.21
72465;BME280;60471;52.150;4.508;2023-09-18T09:45:37;100044.47;;;22.70;66.77
72465;BME280;60471;52.150;4.508;2023-09-18T09:48:06;100028.81;;;22.65;67.78
72465;BME280;60471;52.150;4.508;2023-09-18T09:50:57;100041.84;;;23.09;64.88
72465;BME280;60471;52.150;4.508;2023-09-18T09:56:18;100043.00;;;25.57;56.92
72465;BME280;60471;52.150;4.508;2023-09-18T09:59:02;100047.41;;;25.73;55.03
72465;BME280;60471;52.150;4.508;2023-09-18T10:01:36;100059.19;;;25.71;54.58
72465;BME280;60471;52.150;4.508;2023-09-18T10:04:05;100034.84;;;25.35;55.22
72465;BME280;60471;52.150;4.508;2023-09-18T10:06:37;100037.94;;;24.88;57.46
72465;BME280;60471;52.150;4.508;2023-09-18T10:09:07;100031.16;;;24.17;59.55
72465;BME280;60471;52.150;4.508;2023-09-18T10:11:41;100039.97;;;25.45;56.35
72465;BME280;60471;52.150;4.508;2023-09-18T10:14:14;100048.91;;;26.67;52.87
72465;BME280;60471;52.150;4.508;2023-09-18T10:16:49;100058.81;;;25.24;56.43
72465;BME280;60471;52.150;4.508;2023-09-18T10:22:39;100051.53;;;24.42;58.84
72465;BME280;60471;52.150;4.508;2023-09-18T10:25:15;100025.56;;;27.01;52.50
72465;BME280;60471;52.150;4.508;2023-09-18T10:27:50;100056.19;;;25.30;55.34
72465;BME280;60471;52.150;4.508;2023-09-18T10:30:20;100029.84;;;23.90;59.00
72465;BME280;60471;52.150;4.508;2023-09-18T10:32:50;100035.50;;;25.37;56.01
72465;BME280;60471;52.150;4.508;2023-09-18T10:35:18;100028.63;;;25.35;56.12
72465;BME280;60471;52.150;4.508;2023-09-18T10:37:46;100045.88;;;25.19;56.07
72465;BME280;60471;52.150;4.508;2023-09-18T10:40:15;100046.41;;;25.44;54.24
72465;BME280;60471;52.150;4.508;2023-09-18T10:42:43;100042.81;;;24.55;56.40
72465;BME280;60471;52.150;4.508;2023-09-18T10:45:14;100053.63;;;24.70;56.76
72465;BME280;60471;52.150;4.508;2023-09-18T10:47:43;100048.34;;;24.91;56.32
72465;BME280;60471;52.150;4.508;2023-09-18T10:50:22;100039.41;;;24.76;57.10
72465;BME280;60471;52.150;4.508;2023-09-18T10:52:51;100038.00;;;25.39;54.47
72465;BME280;60471;52.150;4.508;2023-09-18T10:55:17;100059.13;;;25.65;52.89
72465;BME280;60471;52.150;4.508;2023-09-18T10:57:54;100032.47;;;25.98;52.04
72465;BME280;60471;52.150;4.508;2023-09-18T11:00:25;100037.22;;;25.75;52.16
72465;BME280;60471;52.150;4.508;2023-09-18T11:03:10;100032.38;;;25.04;53.21
72465;BME280;60471;52.150;4.508;2023-09-18T11:05:46;100094.06;;;25.37;51.20
72465;BME280;60471;52.150;4.508;2023-09-18T11:08:33;100041.50;;;25.84;49.67
72465;BME280;60471;52.150;4.508;2023-09-18T11:11:08;100036.34;;;24.64;52.70
72465;BME280;60471;52.150;4.508;2023-09-18T11:13:41;100062.41;;;24.34;54.48
72465;BME280;60471;52.150;4.508;2023-09-18T11:18:51;100041.03;;;25.29;53.11
72465;BME280;60471;52.150;4.508;2023-09-18T11:21:28;100042.91;;;26.01;51.08
72465;BME280;60471;52.150;4.508;2023-09-18T11:23:59;100040.38;;;26.42;49.27
72465;BME280;60471;52.150;4.508;2023-09-18T11:26:34;100060.19;;;27.40;46.99
72465;BME280;60471;52.150;4.508;2023-09-18T11:29:06;100025.97;;;26.63;47.72
72465;BME280;60471;52.150;4.508;2023-09-18T11:34:15;100036.81;;;26.63;49.24
72465;BME280;60471;52.150;4.508;2023-09-18T11:36:48;100042.13;;;24.91;52.57
72465;BME280;60471;52.150;4.508;2023-09-18T11:42:18;100041.34;;;23.84;55.99
72465;BME280;60471;52.150;4.508;2023-09-18T11:44:49;100020.38;;;23.32;58.07
72465;BME280;60471;52.150;4.508;2023-09-18T11:47:17;100019.59;;;23.62;57.91
72465;BME280;60471;52.150;4.508;2023-09-18T11:49:51;100017.97;;;23.76;57.47
72465;BME280;60471;52.150;4.508;2023-09-18T11:52:25;100024.56;;;23.74;56.61
72465;BME280;60471;52.150;4.508;2023-09-18T11:54:56;100007.59;;;25.01;53.53
72465;BME280;60471;52.150;4.508;2023-09-18T11:57:24;100018.22;;;26.53;49.09
72465;BME280;60471;52.150;4.508;2023-09-18T11:59:51;100011.56;;;25.85;50.02
72465;BME280;60471;52.150;4.508;2023-09-18T12:02:31;100012.06;;;25.59;51.72
72465;BME280;60471;52.150;4.508;2023-09-18T12:05:14;100007.84;;;27.94;45.61
72465;BME280;60471;52.150;4.508;2023-09-18T12:07:45;100000.34;;;26.10;49.39
72465;BME280;60471;52.150;4.508;2023-09-18T12:10:14;100005.72;;;27.89;45.93
72465;BME280;60471;52.150;4.508;2023-09-18T12:12:43;99998.72;;;28.35;43.94
72465;BME280;60471;52.150;4.508;2023-09-18T12:15:28;100022.44;;;26.63;47.01
72465;BME280;60471;52.150;4.508;2023-09-18T12:17:55;100032.78;;;25.88;49.52
72465;BME280;60471;52.150;4.508;2023-09-18T12:20:22;99982.97;;;27.09;47.25
72465;BME280;60471;52.150;4.508;2023-09-18T12:22:49;99989.47;;;25.82;50.29
72465;BME280;60471;52.150;4.508;2023-09-18T12:25:16;100011.63;;;26.63;47.68
72465;BME280;60471;52.150;4.508;2023-09-18T12:27:44;99990.94;;;28.18;44.69
72465;BME280;60471;52.150;4.508;2023-09-18T12:30:12;99997.06;;;29.25;42.05
72465;BME280;60471;52.150;4.508;2023-09-18T12:32:46;100024.09;;;27.26;44.94
72465;BME280;60471;52.150;4.508;2023-09-18T12:35:16;100010.94;;;27.84;43.78
72465;BME280;60471;52.150;4.508;2023-09-18T12:37:44;99994.13;;;26.65;47.39
72465;BME280;60471;52.150;4.508;2023-09-18T12:40:27;99991.00;;;27.37;46.23
72465;BME280;60471;52.150;4.508;2023-09-18T12:42:56;99977.78;;;27.82;45.18
72465;BME280;60471;52.150;4.508;2023-09-18T12:45:24;99979.69;;;28.41;44.07
72465;BME280;60471;52.150;4.508;2023-09-18T12:47:51;99992.47;;;29.19;42.72
72465;BME280;60471;52.150;4.508;2023-09-18T12:50:19;99954.13;;;30.96;39.80
72465;BME280;60471;52.150;4.508;2023-09-18T12:52:46;99959.75;;;31.13;38.38
72465;BME280;60471;52.150;4.508;2023-09-18T12:55:24;99969.34;;;29.03;42.06
72465;BME280;60471;52.150;4.508;2023-09-18T12:57:53;99982.75;;;27.04;46.95
72465;BME280;60471;52.150;4.508;2023-09-18T13:00:21;99964.00;;;28.70;43.35
72465;BME280;60471;52.150;4.508;2023-09-18T13:02:49;99960.88;;;27.06;47.42
72465;BME280;60471;52.150;4.508;2023-09-18T13:05:21;99945.28;;;28.02;44.95
72465;BME280;60471;52.150;4.508;2023-09-18T13:07:54;99940.22;;;27.72;44.89
72465;BME280;60471;52.150;4.508;2023-09-18T13:10:21;99945.78;;;29.73;41.42
72465;BME280;60471;52.150;4.508;2023-09-18T13:12:49;99915.06;;;30.66;39.07
72465;BME280;60471;52.150;4.508;2023-09-18T13:15:30;99946.47;;;28.52;41.43
72465;BME280;60471;52.150;4.508;2023-09-18T13:18:08;99941.69;;;28.21;42.74
72465;BME280;60471;52.150;4.508;2023-09-18T13:20:35;99914.44;;;29.70;40.89
72465;BME280;60471;52.150;4.508;2023-09-18T13:23:02;99897.97;;;29.90;39.66